sensor_id;sensor_type;location;lat;lon;timestamp;P1;durP1;ratioP1;P2;durP2;ratioP2
49578;SDS011;35483;50.828;3.228;2023-09-30T00:01:26;7.63;;;3.95;;
49578;SDS011;35483;50.828;3.228;2023-09-30T00:03:52;10.90;;;5.00;;
49578;SDS011;35483;50.828;3.228;2023-09-30T00:06:18;7.07;;;4.35;;
49578;SDS011;35483;50.828;3.228;2023-09-30T00:08:44;6.57;;;4.07;;
49578;SDS011;35483;50.828;3.228;2023-09-30T00:11:10;12.55;;;4.68;;
49578;SDS011;35483;50.828;3.228;2023-09-30T00:13:36;8.65;;;4.22;;
49578;SDS011;35483;50.828;3.228;2023-09-30T00:16:02;9.05;;;4.55;;
49578;SDS011;35483;50.828;3.228;2023-09-30T00:18:28;7.28;;;3.72;;
49578;SDS011;35483;50.828;3.228;2023-09-30T00:20:54;9.10;;;4.15;;
49578;SDS011;35483;50.828;3.228;2023-09-30T00:23:20;8.10;;;4.20;;
49578;SDS011;35483;50.828;3.228;2023-09-30T00:25:47;8.32;;;4.15;;
49578;SDS011;35483;50.828;3.228;2023-09-30T00:28:15;8.93;;;3.58;;
49578;SDS011;35483;50.828;3.228;2023-09-30T00:30:41;8.68;;;4.35;;
49578;SDS011;35483;50.828;3.228;2023-09-30T00:33:07;23.70;;;5.45;;
49578;SDS011;35483;50.828;3.228;2023-09-30T00:35:34;11.05;;;4.45;;
49578;SDS011;35483;50.828;3.228;2023-09-30T00:38:00;10.18;;;4.47;;
49578;SDS011;35483;50.828;3.228;2023-09-30T00:40:26;8.30;;;4.10;;
49578;SDS011;35483;50.828;3.228;2023-09-30T00:42:51;8.10;;;4.00;;
49578;SDS011;35483;50.828;3.228;2023-09-30T00:45:17;9.60;;;4.68;;
49578;SDS011;35483;50.828;3.228;2023-09-30T00:47:43;7.65;;;4.78;;
49578;SDS011;35483;50.828;3.228;2023-09-30T00:50:09;11.88;;;4.80;;
49578;SDS011;35483;50.828;3.228;2023-09-30T00:52:38;9.82;;;4.80;;
49578;SDS011;35483;50.828;3.228;2023-09-30T00:55:04;13.93;;;4.80;;
49578;SDS011;35483;50.828;3.228;2023-09-30T00:57:31;10.95;;;4.50;;
49578;SDS011;35483;50.828;3.228;2023-09-30T00:59:57;13.07;;;5.13;;
49578;SDS011;35483;50.828;3.228;2023-09-30T01:02:25;9.57;;;4.68;;
49578;SDS011;35483;50.828;3.228;2023-09-30T01:04:50;10.63;;;4.78;;
49578;SDS011;35483;50.828;3.228;2023-09-30T01:07:17;9.70;;;4.85;;
49578;SDS011;35483;50.828;3.228;2023-09-30T01:09:42;11.90;;;5.38;;
49578;SDS011;35483;50.828;3.228;2023-09-30T01:12:09;11.25;;;5.53;;
49578;SDS011;35483;50.828;3.228;2023-09-30T01:14:35;9.10;;;5.03;;
49578;SDS011;35483;50.828;3.228;2023-09-30T01:17:03;10.77;;;5.55;;
49578;SDS011;35483;50.828;3.228;2023-09-30T01:19:29;9.43;;;4.80;;
49578;SDS011;35483;50.828;3.228;2023-09-30T01:21:55;9.00;;;4.95;;
49578;SDS011;35483;50.828;3.228;2023-09-30T01:24:24;9.00;;;5.32;;
49578;SDS011;35483;50.828;3.228;2023-09-30T01:26:50;12.18;;;5.50;;
49578;SDS011;35483;50.828;3.228;2023-09-30T01:29:16;13.50;;;5.63;;
49578;SDS011;35483;50.828;3.228;2023-09-30T01:31:42;12.73;;;5.75;;
49578;SDS011;35483;50.828;3.228;2023-09-30T01:34:08;10.07;;;5.07;;
49578;SDS011;35483;50.828;3.228;2023-09-30T01:36:35;11.93;;;6.18;;
49578;SDS011;35483;50.828;3.228;2023-09-30T01:39:01;13.52;;;5.22;;
49578;SDS011;35483;50.828;3.228;2023-09-30T01:41:28;14.43;;;5.70;;
49578;SDS011;35483;50.828;3.228;2023-09-30T01:43:54;9.88;;;4.93;;
49578;SDS011;35483;50.828;3.228;2023-09-30T01:46:20;13.68;;;5.65;;
49578;SDS011;35483;50.828;3.228;2023-09-30T01:48:45;14.85;;;5.55;;
49578;SDS011;35483;50.828;3.228;2023-09-30T01:51:11;12.80;;;5.63;;
49578;SDS011;35483;50.828;3.228;2023-09-30T01:53:37;10.13;;;5.80;;
49578;SDS011;35483;50.828;3.228;2023-09-30T01:56:02;12.00;;;5.03;;
49578;SDS011;35483;50.828;3.228;2023-09-30T01:58:28;11.23;;;5.35;;
49578;SDS011;35483;50.828;3.228;2023-09-30T02:00:56;9.85;;;5.07;;
49578;SDS011;35483;50.828;3.228;2023-09-30T02:03:28;10.07;;;5.03;;
49578;SDS011;35483;50.828;3.228;2023-09-30T02:05:54;14.45;;;5.43;;
49578;SDS011;35483;50.828;3.228;2023-09-30T02:08:20;12.85;;;5.57;;
49578;SDS011;35483;50.828;3.228;2023-09-30T02:10:47;13.38;;;5.93;;
49578;SDS011;35483;50.828;3.228;2023-09-30T02:13:14;12.85;;;5.53;;
49578;SDS011;35483;50.828;3.228;2023-09-30T02:15:40;12.20;;;5.45;;
49578;SDS011;35483;50.828;3.228;2023-09-30T02:18:06;10.65;;;5.25;;
49578;SDS011;35483;50.828;3.228;2023-09-30T02:20:32;10.98;;;5.03;;
49578;SDS011;35483;50.828;3.228;2023-09-30T02:22:59;10.93;;;4.85;;
49578;SDS011;35483;50.828;3.228;2023-09-30T02:25:27;11.95;;;5.75;;
49578;SDS011;35483;50.828;3.228;2023-09-30T02:27:53;14.55;;;5.88;;
49578;SDS011;35483;50.828;3.228;2023-09-30T02:30:19;11.32;;;4.90;;
49578;SDS011;35483;50.828;3.228;2023-09-30T02:32:46;10.90;;;5.07;;
49578;SDS011;35483;50.828;3.228;2023-09-30T02:35:12;14.13;;;5.40;;
49578;SDS011;35483;50.828;3.228;2023-09-30T02:37:39;11.40;;;4.93;;
49578;SDS011;35483;50.828;3.228;2023-09-30T02:40:05;9.52;;;5.22;;
49578;SDS011;35483;50.828;3.228;2023-09-30T02:42:35;9.27;;;4.63;;
49578;SDS011;35483;50.828;3.228;2023-09-30T02:45:04;10.05;;;4.95;;
49578;SDS011;35483;50.828;3.228;2023-09-30T02:47:31;11.45;;;4.80;;
49578;SDS011;35483;50.828;3.228;2023-09-30T02:49:57;10.48;;;4.50;;
49578;SDS011;35483;50.828;3.228;2023-09-30T02:52:24;9.63;;;4.65;;
49578;SDS011;35483;50.828;3.228;2023-09-30T02:54:50;10.95;;;4.50;;
49578;SDS011;35483;50.828;3.228;2023-09-30T02:57:17;8.68;;;4.38;;
49578;SDS011;35483;50.828;3.228;2023-09-30T02:59:43;9.23;;;4.20;;
49578;SDS011;35483;50.828;3.228;2023-09-30T03:02:09;7.68;;;4.35;;
49578;SDS011;35483;50.828;3.228;2023-09-30T03:04:36;8.90;;;4.22;;
49578;SDS011;35483;50.828;3.228;2023-09-30T03:07:02;12.18;;;5.07;;
49578;SDS011;35483;50.828;3.228;2023-09-30T03:09:28;10.70;;;4.60;;
49578;SDS011;35483;50.828;3.228;2023-09-30T03:11:54;9.80;;;4.55;;
49578;SDS011;35483;50.828;3.228;2023-09-30T03:14:24;12.20;;;4.47;;
49578;SDS011;35483;50.828;3.228;2023-09-30T03:16:50;9.55;;;4.82;;
49578;SDS011;35483;50.828;3.228;2023-09-30T03:19:17;9.80;;;4.35;;
49578;SDS011;35483;50.828;3.228;2023-09-30T03:21:42;13.27;;;4.65;;
49578;SDS011;35483;50.828;3.228;2023-09-30T03:24:09;7.80;;;3.80;;
49578;SDS011;35483;50.828;3.228;2023-09-30T03:26:35;10.48;;;4.65;;
49578;SDS011;35483;50.828;3.228;2023-09-30T03:29:01;12.95;;;5.32;;
49578;SDS011;35483;50.828;3.228;2023-09-30T03:31:28;11.90;;;4.95;;
49578;SDS011;35483;50.828;3.228;2023-09-30T03:33:54;8.57;;;4.63;;
49578;SDS011;35483;50.828;3.228;2023-09-30T03:36:20;12.93;;;4.15;;
49578;SDS011;35483;50.828;3.228;2023-09-30T03:38:51;9.23;;;4.53;;
49578;SDS011;35483;50.828;3.228;2023-09-30T03:41:25;11.07;;;4.72;;
49578;SDS011;35483;50.828;3.228;2023-09-30T03:43:51;10.07;;;4.93;;
49578;SDS011;35483;50.828;3.228;2023-09-30T03:46:17;10.93;;;5.15;;
49578;SDS011;35483;50.828;3.228;2023-09-30T03:48:43;9.80;;;4.30;;
49578;SDS011;35483;50.828;3.228;2023-09-30T03:51:13;10.95;;;5.32;;
49578;SDS011;35483;50.828;3.228;2023-09-30T03:53:40;9.75;;;4.78;;
49578;SDS011;35483;50.828;3.228;2023-09-30T03:56:09;13.18;;;5.13;;
49578;SDS011;35483;50.828;3.228;2023-09-30T03:58:37;11.70;;;5.65;;
49578;SDS011;35483;50.828;3.228;2023-09-30T04:01:04;10.10;;;5.72;;
49578;SDS011;35483;50.828;3.228;2023-09-30T04:03:30;11.20;;;6.10;;
49578;SDS011;35483;50.828;3.228;2023-09-30T04:05:58;12.75;;;5.63;;
49578;SDS011;35483;50.828;3.228;2023-09-30T04:08:24;9.02;;;4.95;;
49578;SDS011;35483;50.828;3.228;2023-09-30T04:10:50;12.20;;;5.13;;
49578;SDS011;35483;50.828;3.228;2023-09-30T04:13:16;12.63;;;5.88;;
49578;SDS011;35483;50.828;3.228;2023-09-30T04:15:42;12.65;;;5.75;;
49578;SDS011;35483;50.828;3.228;2023-09-30T04:18:09;9.02;;;5.55;;
49578;SDS011;35483;50.828;3.228;2023-09-30T04:20:36;10.57;;;6.13;;
49578;SDS011;35483;50.828;3.228;2023-09-30T04:23:04;15.20;;;6.15;;
49578;SDS011;35483;50.828;3.228;2023-09-30T04:25:35;14.40;;;6.57;;
49578;SDS011;35483;50.828;3.228;2023-09-30T04:28:01;10.98;;;6.85;;
49578;SDS011;35483;50.828;3.228;2023-09-30T04:30:27;11.57;;;6.45;;
49578;SDS011;35483;50.828;3.228;2023-09-30T04:32:54;11.02;;;6.72;;
49578;SDS011;35483;50.828;3.228;2023-09-30T04:35:21;10.80;;;6.57;;
49578;SDS011;35483;50.828;3.228;2023-09-30T04:37:47;11.00;;;6.70;;
49578;SDS011;35483;50.828;3.228;2023-09-30T04:40:13;11.98;;;6.75;;
49578;SDS011;35483;50.828;3.228;2023-09-30T04:42:45;12.35;;;6.90;;
49578;SDS011;35483;50.828;3.228;2023-09-30T04:45:12;12.40;;;7.03;;
49578;SDS011;35483;50.828;3.228;2023-09-30T04:47:41;11.18;;;7.47;;
49578;SDS011;35483;50.828;3.228;2023-09-30T04:50:09;11.75;;;7.00;;
49578;SDS011;35483;50.828;3.228;2023-09-30T04:52:36;12.43;;;7.07;;
49578;SDS011;35483;50.828;3.228;2023-09-30T04:55:04;14.43;;;7.80;;
49578;SDS011;35483;50.828;3.228;2023-09-30T04:57:30;12.55;;;7.20;;
49578;SDS011;35483;50.828;3.228;2023-09-30T04:59:56;12.60;;;7.07;;
49578;SDS011;35483;50.828;3.228;2023-09-30T05:02:23;16.02;;;8.15;;
49578;SDS011;35483;50.828;3.228;2023-09-30T05:04:50;12.13;;;7.60;;
49578;SDS011;35483;50.828;3.228;2023-09-30T05:07:17;11.63;;;7.18;;
49578;SDS011;35483;50.828;3.228;2023-09-30T05:09:44;11.80;;;7.57;;
49578;SDS011;35483;50.828;3.228;2023-09-30T05:12:10;12.32;;;7.18;;
49578;SDS011;35483;50.828;3.228;2023-09-30T05:14:36;14.23;;;8.18;;
49578;SDS011;35483;50.828;3.228;2023-09-30T05:17:04;13.13;;;7.45;;
49578;SDS011;35483;50.828;3.228;2023-09-30T05:19:31;16.15;;;7.63;;
49578;SDS011;35483;50.828;3.228;2023-09-30T05:21:57;11.57;;;7.03;;
49578;SDS011;35483;50.828;3.228;2023-09-30T05:24:23;13.95;;;7.22;;
49578;SDS011;35483;50.828;3.228;2023-09-30T05:26:49;14.50;;;7.78;;
49578;SDS011;35483;50.828;3.228;2023-09-30T05:29:16;13.73;;;7.53;;
49578;SDS011;35483;50.828;3.228;2023-09-30T05:31:42;12.68;;;7.15;;
49578;SDS011;35483;50.828;3.228;2023-09-30T05:34:07;14.15;;;7.60;;
49578;SDS011;35483;50.828;3.228;2023-09-30T05:36:33;10.60;;;7.43;;
49578;SDS011;35483;50.828;3.228;2023-09-30T05:38:59;18.13;;;7.97;;
49578;SDS011;35483;50.828;3.228;2023-09-30T05:41:25;13.73;;;7.47;;
49578;SDS011;35483;50.828;3.228;2023-09-30T05:43:52;13.98;;;7.75;;
49578;SDS011;35483;50.828;3.228;2023-09-30T05:46:19;14.98;;;7.60;;
49578;SDS011;35483;50.828;3.228;2023-09-30T05:48:46;13.68;;;7.28;;
49578;SDS011;35483;50.828;3.228;2023-09-30T05:51:12;11.68;;;7.47;;
49578;SDS011;35483;50.828;3.228;2023-09-30T05:53:43;12.45;;;7.68;;
49578;SDS011;35483;50.828;3.228;2023-09-30T05:56:08;14.13;;;8.30;;
49578;SDS011;35483;50.828;3.228;2023-09-30T05:58:37;12.32;;;7.75;;
49578;SDS011;35483;50.828;3.228;2023-09-30T06:01:12;14.18;;;7.70;;
49578;SDS011;35483;50.828;3.228;2023-09-30T06:03:44;14.07;;;7.60;;
49578;SDS011;35483;50.828;3.228;2023-09-30T06:06:15;13.75;;;7.55;;
49578;SDS011;35483;50.828;3.228;2023-09-30T06:08:44;11.07;;;6.72;;
49578;SDS011;35483;50.828;3.228;2023-09-30T06:11:19;14.25;;;7.28;;
49578;SDS011;35483;50.828;3.228;2023-09-30T06:13:50;11.38;;;7.10;;
49578;SDS011;35483;50.828;3.228;2023-09-30T06:16:18;12.98;;;7.47;;
49578;SDS011;35483;50.828;3.228;2023-09-30T06:18:44;13.77;;;7.70;;
49578;SDS011;35483;50.828;3.228;2023-09-30T06:21:13;11.45;;;7.15;;
49578;SDS011;35483;50.828;3.228;2023-09-30T06:23:40;11.82;;;7.55;;
49578;SDS011;35483;50.828;3.228;2023-09-30T06:26:06;11.35;;;7.38;;
49578;SDS011;35483;50.828;3.228;2023-09-30T06:28:31;10.85;;;6.68;;
49578;SDS011;35483;50.828;3.228;2023-09-30T06:30:59;10.00;;;6.47;;
49578;SDS011;35483;50.828;3.228;2023-09-30T06:33:25;10.07;;;6.88;;
49578;SDS011;35483;50.828;3.228;2023-09-30T06:35:55;12.27;;;6.68;;
49578;SDS011;35483;50.828;3.228;2023-09-30T06:38:21;11.65;;;6.95;;
49578;SDS011;35483;50.828;3.228;2023-09-30T06:40:47;10.95;;;6.07;;
49578;SDS011;35483;50.828;3.228;2023-09-30T06:43:14;12.23;;;6.93;;
49578;SDS011;35483;50.828;3.228;2023-09-30T06:45:43;12.57;;;6.35;;
49578;SDS011;35483;50.828;3.228;2023-09-30T06:48:10;16.33;;;7.40;;
49578;SDS011;35483;50.828;3.228;2023-09-30T06:50:39;12.73;;;6.55;;
49578;SDS011;35483;50.828;3.228;2023-09-30T06:53:09;9.98;;;6.47;;
49578;SDS011;35483;50.828;3.228;2023-09-30T06:55:36;11.10;;;6.20;;
49578;SDS011;35483;50.828;3.228;2023-09-30T06:58:05;11.57;;;6.45;;
49578;SDS011;35483;50.828;3.228;2023-09-30T07:00:33;12.05;;;6.80;;
49578;SDS011;35483;50.828;3.228;2023-09-30T07:02:59;13.18;;;6.18;;
49578;SDS011;35483;50.828;3.228;2023-09-30T07:05:26;14.93;;;6.72;;
49578;SDS011;35483;50.828;3.228;2023-09-30T07:07:53;15.45;;;7.40;;
49578;SDS011;35483;50.828;3.228;2023-09-30T07:10:19;11.50;;;6.18;;
49578;SDS011;35483;50.828;3.228;2023-09-30T07:12:44;17.80;;;7.50;;
49578;SDS011;35483;50.828;3.228;2023-09-30T07:15:10;14.77;;;7.18;;
49578;SDS011;35483;50.828;3.228;2023-09-30T07:17:36;12.52;;;7.53;;
49578;SDS011;35483;50.828;3.228;2023-09-30T07:20:03;15.82;;;6.72;;
49578;SDS011;35483;50.828;3.228;2023-09-30T07:22:30;18.13;;;8.27;;
49578;SDS011;35483;50.828;3.228;2023-09-30T07:24:56;17.90;;;8.07;;
49578;SDS011;35483;50.828;3.228;2023-09-30T07:27:23;12.00;;;6.57;;
49578;SDS011;35483;50.828;3.228;2023-09-30T07:29:49;16.60;;;7.55;;
49578;SDS011;35483;50.828;3.228;2023-09-30T07:32:15;15.02;;;7.15;;
49578;SDS011;35483;50.828;3.228;2023-09-30T07:34:41;15.52;;;6.80;;
49578;SDS011;35483;50.828;3.228;2023-09-30T07:37:07;14.45;;;7.43;;
49578;SDS011;35483;50.828;3.228;2023-09-30T07:39:33;13.13;;;7.20;;
49578;SDS011;35483;50.828;3.228;2023-09-30T07:42:00;12.35;;;6.20;;
49578;SDS011;35483;50.828;3.228;2023-09-30T07:44:26;16.23;;;6.70;;
49578;SDS011;35483;50.828;3.228;2023-09-30T07:46:52;13.77;;;6.47;;
49578;SDS011;35483;50.828;3.228;2023-09-30T07:49:18;15.48;;;6.93;;
49578;SDS011;35483;50.828;3.228;2023-09-30T07:51:44;14.75;;;7.00;;
49578;SDS011;35483;50.828;3.228;2023-09-30T07:54:11;15.60;;;6.45;;
49578;SDS011;35483;50.828;3.228;2023-09-30T07:56:37;16.67;;;6.85;;
49578;SDS011;35483;50.828;3.228;2023-09-30T07:59:04;14.88;;;6.72;;
49578;SDS011;35483;50.828;3.228;2023-09-30T08:01:30;15.13;;;6.20;;
49578;SDS011;35483;50.828;3.228;2023-09-30T08:03:57;12.75;;;6.13;;
49578;SDS011;35483;50.828;3.228;2023-09-30T08:06:22;14.10;;;6.25;;
49578;SDS011;35483;50.828;3.228;2023-09-30T08:08:48;10.65;;;6.45;;
49578;SDS011;35483;50.828;3.228;2023-09-30T08:11:14;10.20;;;5.65;;
49578;SDS011;35483;50.828;3.228;2023-09-30T08:13:42;13.20;;;6.68;;
49578;SDS011;35483;50.828;3.228;2023-09-30T08:16:08;12.40;;;6.25;;
49578;SDS011;35483;50.828;3.228;2023-09-30T08:18:34;13.85;;;6.28;;
49578;SDS011;35483;50.828;3.228;2023-09-30T08:20:59;16.02;;;6.57;;
49578;SDS011;35483;50.828;3.228;2023-09-30T08:23:25;15.27;;;6.90;;
49578;SDS011;35483;50.828;3.228;2023-09-30T08:25:51;14.18;;;5.78;;
49578;SDS011;35483;50.828;3.228;2023-09-30T08:28:17;10.35;;;6.60;;
49578;SDS011;35483;50.828;3.228;2023-09-30T08:30:44;16.38;;;6.63;;
49578;SDS011;35483;50.828;3.228;2023-09-30T08:33:09;12.10;;;5.75;;
49578;SDS011;35483;50.828;3.228;2023-09-30T08:35:38;13.82;;;6.28;;
49578;SDS011;35483;50.828;3.228;2023-09-30T08:38:03;15.40;;;7.10;;
49578;SDS011;35483;50.828;3.228;2023-09-30T08:40:29;9.85;;;6.35;;
49578;SDS011;35483;50.828;3.228;2023-09-30T08:42:55;11.32;;;5.97;;
49578;SDS011;35483;50.828;3.228;2023-09-30T08:45:21;13.40;;;6.20;;
49578;SDS011;35483;50.828;3.228;2023-09-30T08:47:47;11.70;;;6.32;;
49578;SDS011;35483;50.828;3.228;2023-09-30T08:50:15;16.00;;;6.38;;
49578;SDS011;35483;50.828;3.228;2023-09-30T08:52:43;12.38;;;6.53;;
49578;SDS011;35483;50.828;3.228;2023-09-30T08:55:10;12.73;;;6.38;;
49578;SDS011;35483;50.828;3.228;2023-09-30T08:57:37;13.38;;;6.45;;
49578;SDS011;35483;50.828;3.228;2023-09-30T09:00:07;15.10;;;6.55;;
49578;SDS011;35483;50.828;3.228;2023-09-30T09:02:38;13.52;;;6.32;;
49578;SDS011;35483;50.828;3.228;2023-09-30T09:05:07;12.45;;;6.95;;
49578;SDS011;35483;50.828;3.228;2023-09-30T09:07:34;11.15;;;5.68;;
49578;SDS011;35483;50.828;3.228;2023-09-30T09:10:04;11.70;;;6.78;;
49578;SDS011;35483;50.828;3.228;2023-09-30T09:12:32;12.13;;;6.40;;
49578;SDS011;35483;50.828;3.228;2023-09-30T09:14:59;10.20;;;5.95;;
49578;SDS011;35483;50.828;3.228;2023-09-30T09:17:30;12.85;;;6.00;;
49578;SDS011;35483;50.828;3.228;2023-09-30T09:20:07;14.25;;;5.60;;
49578;SDS011;35483;50.828;3.228;2023-09-30T09:22:41;10.60;;;5.20;;
49578;SDS011;35483;50.828;3.228;2023-09-30T09:25:08;12.60;;;5.03;;
49578;SDS011;35483;50.828;3.228;2023-09-30T09:27:35;9.95;;;6.40;;
49578;SDS011;35483;50.828;3.228;2023-09-30T09:30:15;10.93;;;5.35;;
49578;SDS011;35483;50.828;3.228;2023-09-30T09:32:55;13.55;;;5.63;;
49578;SDS011;35483;50.828;3.228;2023-09-30T09:35:23;14.60;;;5.88;;
49578;SDS011;35483;50.828;3.228;2023-09-30T09:38:00;11.70;;;4.88;;
49578;SDS011;35483;50.828;3.228;2023-09-30T09:40:31;10.35;;;5.50;;
49578;SDS011;35483;50.828;3.228;2023-09-30T09:42:58;9.05;;;5.22;;
49578;SDS011;35483;50.828;3.228;2023-09-30T09:45:27;11.82;;;4.97;;
49578;SDS011;35483;50.828;3.228;2023-09-30T09:47:56;14.57;;;4.78;;
49578;SDS011;35483;50.828;3.228;2023-09-30T09:50:23;9.65;;;4.57;;
49578;SDS011;35483;50.828;3.228;2023-09-30T09:52:50;12.68;;;5.00;;
49578;SDS011;35483;50.828;3.228;2023-09-30T09:55:17;11.68;;;4.20;;
49578;SDS011;35483;50.828;3.228;2023-09-30T09:57:44;9.60;;;4.07;;
49578;SDS011;35483;50.828;3.228;2023-09-30T10:00:11;12.48;;;4.97;;
49578;SDS011;35483;50.828;3.228;2023-09-30T10:02:42;12.38;;;4.18;;
49578;SDS011;35483;50.828;3.228;2023-09-30T10:05:08;12.38;;;4.03;;
49578;SDS011;35483;50.828;3.228;2023-09-30T10:07:37;8.82;;;4.22;;
49578;SDS011;35483;50.828;3.228;2023-09-30T10:10:10;10.50;;;4.18;;
49578;SDS011;35483;50.828;3.228;2023-09-30T10:12:38;8.82;;;3.85;;
49578;SDS011;35483;50.828;3.228;2023-09-30T10:20:28;7.53;;;2.97;;
49578;SDS011;35483;50.828;3.228;2023-09-30T10:25:50;11.38;;;3.22;;
49578;SDS011;35483;50.828;3.228;2023-09-30T10:28:44;10.20;;;3.20;;
49578;SDS011;35483;50.828;3.228;2023-09-30T10:31:18;6.63;;;2.58;;
49578;SDS011;35483;50.828;3.228;2023-09-30T10:36:28;7.88;;;2.95;;
49578;SDS011;35483;50.828;3.228;2023-09-30T10:38:55;7.95;;;2.90;;
49578;SDS011;35483;50.828;3.228;2023-09-30T10:47:00;8.55;;;2.42;;
49578;SDS011;35483;50.828;3.228;2023-09-30T10:49:46;8.13;;;3.25;;
49578;SDS011;35483;50.828;3.228;2023-09-30T10:52:12;9.70;;;3.28;;
49578;SDS011;35483;50.828;3.228;2023-09-30T10:54:50;7.72;;;2.67;;
49578;SDS011;35483;50.828;3.228;2023-09-30T10:57:37;6.63;;;2.85;;
49578;SDS011;35483;50.828;3.228;2023-09-30T11:00:12;5.85;;;2.47;;
49578;SDS011;35483;50.828;3.228;2023-09-30T11:02:50;8.52;;;2.78;;
49578;SDS011;35483;50.828;3.228;2023-09-30T11:05:17;11.50;;;2.72;;
49578;SDS011;35483;50.828;3.228;2023-09-30T11:07:47;4.10;;;2.33;;
49578;SDS011;35483;50.828;3.228;2023-09-30T11:10:17;8.10;;;2.53;;
49578;SDS011;35483;50.828;3.228;2023-09-30T11:12:53;6.25;;;2.42;;
49578;SDS011;35483;50.828;3.228;2023-09-30T11:15:22;8.20;;;2.63;;
49578;SDS011;35483;50.828;3.228;2023-09-30T11:17:49;6.85;;;2.30;;
49578;SDS011;35483;50.828;3.228;2023-09-30T11:20:16;5.70;;;2.40;;
49578;SDS011;35483;50.828;3.228;2023-09-30T11:22:43;6.53;;;2.15;;
49578;SDS011;35483;50.828;3.228;2023-09-30T11:25:20;6.30;;;3.08;;
49578;SDS011;35483;50.828;3.228;2023-09-30T11:27:47;8.88;;;2.45;;
49578;SDS011;35483;50.828;3.228;2023-09-30T11:30:13;6.72;;;2.22;;
49578;SDS011;35483;50.828;3.228;2023-09-30T11:32:39;4.72;;;2.13;;
49578;SDS011;35483;50.828;3.228;2023-09-30T11:35:09;4.35;;;1.90;;
49578;SDS011;35483;50.828;3.228;2023-09-30T11:37:36;5.07;;;2.28;;
49578;SDS011;35483;50.828;3.228;2023-09-30T11:40:12;4.38;;;2.08;;
49578;SDS011;35483;50.828;3.228;2023-09-30T11:42:41;8.48;;;2.05;;
49578;SDS011;35483;50.828;3.228;2023-09-30T11:45:22;8.20;;;2.30;;
49578;SDS011;35483;50.828;3.228;2023-09-30T11:47:48;5.45;;;2.38;;
49578;SDS011;35483;50.828;3.228;2023-09-30T11:50:14;8.45;;;2.67;;
49578;SDS011;35483;50.828;3.228;2023-09-30T11:52:39;4.80;;;1.90;;
49578;SDS011;35483;50.828;3.228;2023-09-30T11:55:11;6.78;;;1.95;;
49578;SDS011;35483;50.828;3.228;2023-09-30T11:57:37;5.15;;;1.67;;
49578;SDS011;35483;50.828;3.228;2023-09-30T12:00:04;4.15;;;1.52;;
49578;SDS011;35483;50.828;3.228;2023-09-30T12:02:38;5.03;;;1.85;;
49578;SDS011;35483;50.828;3.228;2023-09-30T12:05:05;3.45;;;1.63;;
49578;SDS011;35483;50.828;3.228;2023-09-30T12:07:37;6.05;;;2.08;;
49578;SDS011;35483;50.828;3.228;2023-09-30T12:10:06;5.65;;;1.83;;
49578;SDS011;35483;50.828;3.228;2023-09-30T12:12:32;6.22;;;1.73;;
49578;SDS011;35483;50.828;3.228;2023-09-30T12:14:58;6.22;;;1.92;;
49578;SDS011;35483;50.828;3.228;2023-09-30T12:17:24;5.57;;;2.05;;
49578;SDS011;35483;50.828;3.228;2023-09-30T12:19:49;5.05;;;2.33;;
49578;SDS011;35483;50.828;3.228;2023-09-30T12:22:15;4.90;;;2.15;;
49578;SDS011;35483;50.828;3.228;2023-09-30T12:24:41;5.00;;;1.90;;
49578;SDS011;35483;50.828;3.228;2023-09-30T12:27:07;4.45;;;2.03;;
49578;SDS011;35483;50.828;3.228;2023-09-30T12:29:33;5.95;;;1.67;;
49578;SDS011;35483;50.828;3.228;2023-09-30T12:31:59;5.60;;;1.90;;
49578;SDS011;35483;50.828;3.228;2023-09-30T12:34:26;5.13;;;1.83;;
49578;SDS011;35483;50.828;3.228;2023-09-30T12:36:52;3.53;;;1.95;;
49578;SDS011;35483;50.828;3.228;2023-09-30T12:39:19;6.90;;;2.47;;
49578;SDS011;35483;50.828;3.228;2023-09-30T12:41:49;5.03;;;1.80;;
49578;SDS011;35483;50.828;3.228;2023-09-30T12:44:14;8.15;;;2.13;;
49578;SDS011;35483;50.828;3.228;2023-09-30T12:46:40;4.97;;;1.80;;
49578;SDS011;35483;50.828;3.228;2023-09-30T12:49:06;6.22;;;1.60;;
49578;SDS011;35483;50.828;3.228;2023-09-30T12:51:32;3.92;;;1.88;;
49578;SDS011;35483;50.828;3.228;2023-09-30T12:53:59;5.60;;;2.60;;
49578;SDS011;35483;50.828;3.228;2023-09-30T12:56:25;6.25;;;2.47;;
49578;SDS011;35483;50.828;3.228;2023-09-30T12:58:51;3.47;;;1.88;;
49578;SDS011;35483;50.828;3.228;2023-09-30T13:01:17;8.60;;;1.80;;
49578;SDS011;35483;50.828;3.228;2023-09-30T13:03:44;8.85;;;2.08;;
49578;SDS011;35483;50.828;3.228;2023-09-30T13:06:10;6.90;;;2.00;;
49578;SDS011;35483;50.828;3.228;2023-09-30T13:08:36;6.25;;;2.20;;
49578;SDS011;35483;50.828;3.228;2023-09-30T13:11:02;4.05;;;1.63;;
49578;SDS011;35483;50.828;3.228;2023-09-30T13:13:32;4.97;;;1.98;;
49578;SDS011;35483;50.828;3.228;2023-09-30T13:16:04;4.28;;;2.00;;
49578;SDS011;35483;50.828;3.228;2023-09-30T13:18:33;5.45;;;1.95;;
49578;SDS011;35483;50.828;3.228;2023-09-30T13:20:59;7.28;;;2.05;;
49578;SDS011;35483;50.828;3.228;2023-09-30T13:23:24;3.58;;;1.98;;
49578;SDS011;35483;50.828;3.228;2023-09-30T13:25:52;8.18;;;1.92;;
49578;SDS011;35483;50.828;3.228;2023-09-30T13:28:18;3.85;;;2.15;;
49578;SDS011;35483;50.828;3.228;2023-09-30T13:30:44;5.82;;;1.90;;
49578;SDS011;35483;50.828;3.228;2023-09-30T13:33:10;5.97;;;2.03;;
49578;SDS011;35483;50.828;3.228;2023-09-30T13:35:36;5.30;;;1.77;;
49578;SDS011;35483;50.828;3.228;2023-09-30T13:38:03;8.52;;;2.10;;
49578;SDS011;35483;50.828;3.228;2023-09-30T13:40:29;5.13;;;2.45;;
49578;SDS011;35483;50.828;3.228;2023-09-30T13:42:55;5.35;;;1.80;;
49578;SDS011;35483;50.828;3.228;2023-09-30T13:45:22;4.53;;;1.58;;
49578;SDS011;35483;50.828;3.228;2023-09-30T13:47:48;5.45;;;1.70;;
49578;SDS011;35483;50.828;3.228;2023-09-30T13:50:14;5.82;;;1.77;;
49578;SDS011;35483;50.828;3.228;2023-09-30T13:52:41;4.10;;;1.70;;
49578;SDS011;35483;50.828;3.228;2023-09-30T13:55:06;6.85;;;2.00;;
49578;SDS011;35483;50.828;3.228;2023-09-30T13:57:33;7.10;;;1.80;;
49578;SDS011;35483;50.828;3.228;2023-09-30T14:00:00;7.93;;;2.58;;
49578;SDS011;35483;50.828;3.228;2023-09-30T14:02:29;6.80;;;2.05;;
49578;SDS011;35483;50.828;3.228;2023-09-30T14:04:54;5.32;;;2.22;;
49578;SDS011;35483;50.828;3.228;2023-09-30T14:07:20;4.18;;;2.08;;
49578;SDS011;35483;50.828;3.228;2023-09-30T14:09:47;5.57;;;1.92;;
49578;SDS011;35483;50.828;3.228;2023-09-30T14:12:12;13.18;;;3.88;;
49578;SDS011;35483;50.828;3.228;2023-09-30T14:14:38;4.97;;;1.95;;
49578;SDS011;35483;50.828;3.228;2023-09-30T14:17:04;6.43;;;2.90;;
49578;SDS011;35483;50.828;3.228;2023-09-30T14:19:33;7.38;;;1.75;;
49578;SDS011;35483;50.828;3.228;2023-09-30T14:21:59;8.57;;;2.50;;
49578;SDS011;35483;50.828;3.228;2023-09-30T14:24:26;7.05;;;2.30;;
49578;SDS011;35483;50.828;3.228;2023-09-30T14:26:51;7.72;;;2.55;;
49578;SDS011;35483;50.828;3.228;2023-09-30T14:29:17;5.32;;;2.15;;
49578;SDS011;35483;50.828;3.228;2023-09-30T14:31:44;5.60;;;2.10;;
49578;SDS011;35483;50.828;3.228;2023-09-30T14:34:11;6.80;;;2.40;;
49578;SDS011;35483;50.828;3.228;2023-09-30T14:36:37;6.82;;;2.40;;
49578;SDS011;35483;50.828;3.228;2023-09-30T14:39:03;9.25;;;2.20;;
49578;SDS011;35483;50.828;3.228;2023-09-30T14:41:30;11.43;;;2.83;;
49578;SDS011;35483;50.828;3.228;2023-09-30T14:43:56;6.72;;;2.45;;
49578;SDS011;35483;50.828;3.228;2023-09-30T14:46:21;5.40;;;2.03;;
49578;SDS011;35483;50.828;3.228;2023-09-30T14:48:47;10.13;;;2.47;;
49578;SDS011;35483;50.828;3.228;2023-09-30T14:51:14;8.38;;;2.55;;
49578;SDS011;35483;50.828;3.228;2023-09-30T14:53:40;6.32;;;2.25;;
49578;SDS011;35483;50.828;3.228;2023-09-30T14:56:16;5.07;;;1.95;;
49578;SDS011;35483;50.828;3.228;2023-09-30T14:58:43;7.07;;;2.60;;